createdAt,value
2023-04-27T00:00:07.958Z,52.36
2023-04-27T00:02:36.031Z,52.42
2023-04-27T00:05:04.181Z,52.55
2023-04-27T00:07:32.213Z,52.37
2023-04-27T00:10:00.057Z,52.61
2023-04-27T00:12:27.927Z,52.44
2023-04-27T00:14:57.254Z,52.31
2023-04-27T00:17:25.235Z,52.47
2023-04-27T00:19:53.480Z,52.72
2023-04-27T00:22:21.381Z,52.51
2023-04-27T00:24:49.296Z,52.43
2023-04-27T00:27:17.150Z,52.46
2023-04-27T00:29:45.176Z,52.55
2023-04-27T00:32:14.491Z,52.45
2023-04-27T00:34:42.449Z,52.53
2023-04-27T00:37:10.327Z,52.34
2023-04-27T00:39:38.222Z,52.51
2023-04-27T00:42:06.459Z,52.55
2023-04-27T00:44:34.386Z,52.30
2023-04-27T00:47:02.307Z,52.27
2023-04-27T00:49:31.590Z,52.48
2023-04-27T00:52:00.190Z,52.27
2023-04-27T00:54:28.100Z,52.45
2023-04-27T00:56:56.354Z,52.24
2023-04-27T00:59:24.203Z,52.28
2023-04-27T01:01:52.159Z,52.48
2023-04-27T01:04:20.424Z,52.31
2023-04-27T01:06:49.755Z,52.47
2023-04-27T01:09:20.043Z,52.64
2023-04-27T01:11:47.994Z,52.35
2023-04-27T01:14:17.260Z,52.39
2023-04-27T01:16:46.428Z,52.57
2023-04-27T01:19:14.615Z,52.72
2023-04-27T01:21:42.706Z,52.77
2023-04-27T01:24:12.157Z,52.73
2023-04-27T01:26:40.004Z,52.85
2023-04-27T01:29:07.905Z,52.96
2023-04-27T01:31:35.885Z,52.82
2023-04-27T01:34:03.797Z,52.90
2023-04-27T01:36:32.380Z,52.91
2023-04-27T01:39:00.274Z,53.01
2023-04-27T01:41:29.558Z,53.11
2023-04-27T01:43:57.687Z,53.09
2023-04-27T01:46:25.723Z,53.14
2023-04-27T01:48:53.623Z,53.01
2023-04-27T01:51:21.672Z,53.43
2023-04-27T01:53:49.591Z,53.40
2023-04-27T01:56:17.565Z,53.24
2023-04-27T01:58:46.750Z,53.63
2023-04-27T02:01:14.700Z,53.38
2023-04-27T02:03:42.974Z,53.47
2023-04-27T02:06:11.188Z,53.61
2023-04-27T02:08:39.089Z,53.84
2023-04-27T02:11:06.978Z,53.60
2023-04-27T02:13:34.840Z,53.85
2023-04-27T02:16:05.244Z,53.81
2023-04-27T02:18:33.769Z,54.09
2023-04-27T02:21:01.826Z,54.04
2023-04-27T02:23:29.730Z,54.31
2023-04-27T02:25:57.652Z,54.05
2023-04-27T02:28:25.618Z,54.29
2023-04-27T02:30:54.112Z,54.34
2023-04-27T02:33:23.541Z,54.26
2023-04-27T02:35:51.414Z,54.54
2023-04-27T02:38:19.537Z,54.63
2023-04-27T02:40:47.524Z,54.53
2023-04-27T02:43:15.567Z,54.74
2023-04-27T02:45:43.450Z,54.83
2023-04-27T02:48:11.447Z,54.91
2023-04-27T02:50:43.111Z,55.25
2023-04-27T02:53:11.054Z,55.30
2023-04-27T02:55:39.011Z,55.38
2023-04-27T02:58:07.147Z,55.49
2023-04-27T03:00:35.253Z,55.39
2023-04-27T03:03:03.277Z,55.58
2023-04-27T03:05:31.958Z,55.37
2023-04-27T03:08:01.519Z,55.42
2023-04-27T03:10:29.451Z,55.67
2023-04-27T03:12:57.319Z,55.86
2023-04-27T03:15:25.177Z,55.85
2023-04-27T03:17:53.136Z,55.81
2023-04-27T03:20:21.132Z,55.94
2023-04-27T03:22:48.975Z,55.78
2023-04-27T03:25:18.238Z,56.28
2023-04-27T03:27:46.138Z,56.33
2023-04-27T03:30:14.781Z,56.29
2023-04-27T03:32:43.543Z,56.48
2023-04-27T03:35:12.258Z,56.46
2023-04-27T03:37:40.172Z,56.61
2023-04-27T03:40:09.378Z,57.05
2023-04-27T03:42:38.688Z,56.93
2023-04-27T03:45:08.099Z,56.80
2023-04-27T03:47:36.019Z,57.13
2023-04-27T03:50:04.295Z,57.09
2023-04-27T03:52:32.171Z,57.12
2023-04-27T03:55:00.065Z,57.10
2023-04-27T03:57:27.948Z,57.32
2023-04-27T03:59:58.829Z,57.13
2023-04-27T04:02:26.972Z,57.51
2023-04-27T04:04:55.203Z,57.51
2023-04-27T04:07:23.153Z,57.39
2023-04-27T04:09:51.033Z,57.72
2023-04-27T04:12:18.886Z,57.51
2023-04-27T04:14:48.922Z,57.73
2023-04-27T04:17:18.266Z,57.46
2023-04-27T04:19:46.175Z,57.62
2023-04-27T04:22:14.041Z,57.59
2023-04-27T04:24:41.895Z,57.55
2023-04-27T04:27:09.805Z,57.45
2023-04-27T04:29:38.902Z,57.58
2023-04-27T04:32:09.438Z,57.76
2023-04-27T04:34:38.694Z,57.82
2023-04-27T04:37:06.560Z,57.83
2023-04-27T04:39:34.462Z,57.65
2023-04-27T04:42:04.071Z,57.88
2023-04-27T04:44:31.986Z,57.96
2023-04-27T04:46:59.918Z,58.00
2023-04-27T04:49:27.907Z,57.99
2023-04-27T04:51:57.223Z,57.70
2023-04-27T04:54:25.095Z,57.96
2023-04-27T04:56:53.013Z,58.10
2023-04-27T04:59:21.024Z,57.86
2023-04-27T05:01:48.900Z,57.95
2023-04-27T05:04:18.797Z,57.97
2023-04-27T05:06:47.293Z,57.84
2023-04-27T05:09:16.503Z,57.83
2023-04-27T05:11:44.383Z,58.06
2023-04-27T05:14:12.398Z,58.23
2023-04-27T05:16:40.567Z,58.24
2023-04-27T05:19:08.772Z,58.25
2023-04-27T05:21:36.672Z,57.91
2023-04-27T05:24:05.141Z,58.17
2023-04-27T05:26:34.395Z,57.81
2023-04-27T05:29:02.294Z,58.09
2023-04-27T05:31:30.231Z,58.02
2023-04-27T05:33:58.197Z,57.93
2023-04-27T05:36:27.236Z,58.07
2023-04-27T05:38:55.183Z,58.19
2023-04-27T05:41:23.984Z,57.92
2023-04-27T05:43:53.615Z,58.26
2023-04-27T05:46:22.096Z,58.25
2023-04-27T05:48:50.080Z,58.33
2023-04-27T05:51:17.984Z,58.37
2023-04-27T05:53:46.577Z,58.48
2023-04-27T05:56:14.460Z,58.45
2023-04-27T05:58:45.178Z,58.51
2023-04-27T06:01:14.460Z,58.67
2023-04-27T06:03:42.583Z,58.56
2023-04-27T06:06:10.724Z,58.85
2023-04-27T06:08:39.533Z,58.96
2023-04-27T06:11:07.599Z,58.98
2023-04-27T06:13:35.614Z,58.92
2023-04-27T06:16:03.677Z,59.29
2023-04-27T06:18:33.080Z,59.31
2023-04-27T06:21:02.310Z,59.10
2023-04-27T06:23:30.487Z,59.37
2023-04-27T06:25:58.903Z,59.00
2023-04-27T06:28:27.253Z,58.97
2023-04-27T06:30:55.199Z,59.34
2023-04-27T06:33:23.072Z,59.16
2023-04-27T06:35:52.368Z,58.98
2023-04-27T06:38:20.260Z,59.36
2023-04-27T06:40:51.997Z,59.17
2023-04-27T06:43:20.170Z,59.11
2023-04-27T06:45:48.349Z,59.01
2023-04-27T06:48:17.051Z,59.29
2023-04-27T06:50:45.000Z,58.97
2023-04-27T06:53:14.297Z,59.22
2023-04-27T06:55:44.542Z,59.32
2023-04-27T06:58:14.143Z,59.47
2023-04-27T07:00:42.142Z,59.07
2023-04-27T07:03:10.216Z,59.13
2023-04-27T07:05:38.251Z,59.45
2023-04-27T07:08:08.509Z,59.18
2023-04-27T07:10:38.361Z,59.42
2023-04-27T07:13:08.867Z,59.35
2023-04-27T07:15:37.272Z,59.55
2023-04-27T07:18:05.433Z,59.45
2023-04-27T07:20:33.502Z,59.28
2023-04-27T07:23:01.496Z,59.08
2023-04-27T07:25:29.410Z,59.22
2023-04-27T07:27:59.806Z,59.19
2023-04-27T07:30:31.048Z,58.88
2023-04-27T07:33:00.914Z,59.21
2023-04-27T07:35:29.030Z,58.85
2023-04-27T07:37:56.979Z,58.67
2023-04-27T07:40:25.076Z,58.71
2023-04-27T07:42:53.400Z,58.88
2023-04-27T07:45:23.164Z,58.47
2023-04-27T07:47:52.145Z,58.45
2023-04-27T07:50:24.443Z,58.43
2023-04-27T07:52:52.420Z,58.55
2023-04-27T07:55:21.550Z,57.88
2023-04-27T07:57:49.431Z,57.81
2023-04-27T08:00:17.864Z,58.01
2023-04-27T08:02:47.420Z,57.63
2023-04-27T08:05:15.818Z,57.82
2023-04-27T08:07:44.918Z,57.70
2023-04-27T08:10:13.353Z,57.47
2023-04-27T08:12:41.268Z,57.85
2023-04-27T08:15:10.640Z,57.80
2023-04-27T08:17:40.920Z,57.57
2023-04-27T08:20:11.657Z,57.73
2023-04-27T08:22:39.771Z,57.49
2023-04-27T08:25:08.647Z,57.63
2023-04-27T08:27:38.249Z,57.70
2023-04-27T08:30:07.222Z,57.24
2023-04-27T08:32:35.180Z,57.38
2023-04-27T08:35:03.734Z,57.29
2023-04-27T08:37:33.049Z,56.98
2023-04-27T08:40:00.923Z,57.40
2023-04-27T08:42:30.705Z,57.35
2023-04-27T08:44:58.580Z,57.33
2023-04-27T08:47:39.049Z,57.33
2023-04-27T08:50:11.257Z,57.35
2023-04-27T08:52:40.593Z,57.25
2023-04-27T08:55:09.535Z,56.96
2023-04-27T08:57:38.010Z,57.21
2023-04-27T09:00:13.253Z,57.68
2023-04-27T09:02:47.956Z,57.47
2023-04-27T09:05:19.297Z,57.31
2023-04-27T09:08:05.716Z,57.39
2023-04-27T09:10:47.292Z,57.46
2023-04-27T09:13:15.274Z,57.91
2023-04-27T09:15:46.320Z,57.95
2023-04-27T09:18:19.472Z,57.95
2023-04-27T09:20:47.575Z,57.80
2023-04-27T09:23:28.660Z,58.26
2023-04-27T09:25:56.786Z,58.14
2023-04-27T09:28:25.776Z,57.89
2023-04-27T09:30:54.973Z,57.82
2023-04-27T09:33:26.162Z,58.24
2023-04-27T09:35:54.057Z,58.11
2023-04-27T09:38:22.778Z,58.71
2023-04-27T09:40:52.996Z,58.74
2023-04-27T09:43:21.921Z,58.59
2023-04-27T09:45:50.042Z,58.55
2023-04-27T09:48:18.364Z,58.81
2023-04-27T09:50:46.842Z,58.84
2023-04-27T09:53:15.706Z,59.05
2023-04-27T09:55:45.720Z,58.92
2023-04-27T09:58:41.943Z,59.02
2023-04-27T10:01:12.482Z,59.31
2023-04-27T10:03:45.593Z,59.38
2023-04-27T10:06:45.932Z,59.10
2023-04-27T10:09:14.963Z,59.46
2023-04-27T10:11:44.597Z,59.25
2023-04-27T10:14:18.492Z,59.45
2023-04-27T10:16:47.366Z,59.35
2023-04-27T10:19:15.639Z,59.07
2023-04-27T10:21:53.932Z,59.37
2023-04-27T10:24:22.010Z,59.21
2023-04-27T10:26:49.948Z,59.21
2023-04-27T10:29:20.543Z,59.34
2023-04-27T10:31:48.957Z,59.18
2023-04-27T10:34:19.150Z,59.78
2023-04-27T10:36:49.178Z,59.38
2023-04-27T10:39:18.503Z,60.02
2023-04-27T10:41:53.332Z,60.10
2023-04-27T10:44:28.772Z,59.90
2023-04-27T10:46:57.458Z,60.13
2023-04-27T10:49:25.346Z,59.90
2023-04-27T10:51:53.250Z,59.72
2023-04-27T10:54:21.142Z,59.71
2023-04-27T10:56:49.017Z,59.84
2023-04-27T10:59:17.015Z,59.94
2023-04-27T11:01:49.481Z,60.25
2023-04-27T11:04:18.560Z,60.18
2023-04-27T11:06:47.130Z,60.12
2023-04-27T11:09:16.238Z,60.73
2023-04-27T11:11:47.998Z,60.77
2023-04-27T11:14:21.078Z,60.69
2023-04-27T11:16:50.695Z,60.39
2023-04-27T11:19:18.556Z,60.15
2023-04-27T11:21:46.582Z,59.91
2023-04-27T11:24:15.616Z,59.32
2023-04-27T11:26:43.615Z,59.22
2023-04-27T11:29:14.019Z,59.50
2023-04-27T11:31:43.736Z,59.21
2023-04-27T11:34:16.509Z,59.19
2023-04-27T11:36:44.396Z,59.46
2023-04-27T11:39:19.075Z,59.39
2023-04-27T11:41:47.101Z,59.39
2023-04-27T11:44:14.997Z,59.58
2023-04-27T11:46:45.932Z,59.67
2023-04-27T11:49:15.574Z,59.48
2023-04-27T11:51:45.087Z,59.06
2023-04-27T11:54:13.235Z,58.82
2023-04-27T11:56:42.101Z,58.45
2023-04-27T11:59:19.610Z,58.68
2023-04-27T12:01:47.810Z,58.56
2023-04-27T12:04:17.913Z,58.63
2023-04-27T12:06:46.003Z,58.62
2023-04-27T12:09:13.904Z,58.38
2023-04-27T12:11:41.830Z,58.79
2023-04-27T12:14:09.719Z,58.49
2023-04-27T12:16:37.866Z,58.68
2023-04-27T12:19:06.592Z,57.89
2023-04-27T12:21:35.891Z,57.72
2023-04-27T12:24:03.766Z,57.91
2023-04-27T12:26:31.639Z,57.66
2023-04-27T12:28:59.535Z,57.58
2023-04-27T12:31:27.944Z,57.63
2023-04-27T12:33:56.170Z,57.71
2023-04-27T12:36:24.074Z,57.65
2023-04-27T12:38:53.484Z,57.32
2023-04-27T12:41:21.396Z,57.17
2023-04-27T12:43:49.415Z,57.36
2023-04-27T12:46:18.345Z,57.16
2023-04-27T12:48:46.407Z,57.09
2023-04-27T12:51:14.645Z,57.61
2023-04-27T12:53:42.643Z,57.22
2023-04-27T12:56:12.592Z,57.24
2023-04-27T12:58:41.675Z,56.82
2023-04-27T13:01:14.913Z,56.98
2023-04-27T13:03:43.149Z,57.05
2023-04-27T13:06:11.272Z,56.90
2023-04-27T13:08:39.173Z,56.63
2023-04-27T13:11:07.153Z,56.26
2023-04-27T13:13:36.441Z,55.22
2023-04-27T13:16:04.643Z,55.15
2023-04-27T13:18:34.911Z,55.11
2023-04-27T13:21:03.965Z,54.97
2023-04-27T13:23:32.037Z,54.75
2023-04-27T13:26:00.147Z,54.39
2023-04-27T13:28:28.030Z,54.33
2023-04-27T13:30:59.586Z,54.22
2023-04-27T13:33:28.168Z,53.96
2023-04-27T13:35:56.086Z,54.10
2023-04-27T13:38:24.097Z,54.42
2023-04-27T13:40:52.050Z,54.18
2023-04-27T13:43:19.937Z,54.06
2023-04-27T13:45:49.583Z,53.59
2023-04-27T13:48:19.360Z,53.58
2023-04-27T13:50:47.426Z,53.59
2023-04-27T13:53:19.376Z,53.77
2023-04-27T13:55:47.562Z,53.54
2023-04-27T13:58:15.715Z,53.87
2023-04-27T14:00:43.609Z,53.51
2023-04-27T14:03:11.990Z,53.85
2023-04-27T14:05:41.381Z,53.78
2023-04-27T14:08:09.322Z,53.26
2023-04-27T14:10:37.613Z,53.68
2023-04-27T14:13:05.536Z,53.93
2023-04-27T14:15:37.111Z,53.69
2023-04-27T14:18:06.414Z,53.91
2023-04-27T14:20:34.523Z,53.41
2023-04-27T14:23:04.400Z,53.89
2023-04-27T14:25:34.595Z,53.64
2023-04-27T14:28:03.007Z,53.84
2023-04-27T14:30:30.874Z,53.76
2023-04-27T14:32:58.923Z,53.79
2023-04-27T14:35:26.916Z,54.17
2023-04-27T14:37:57.064Z,54.08
2023-04-27T14:40:26.496Z,53.66
2023-04-27T14:42:54.358Z,53.44
2023-04-27T14:45:24.151Z,53.90
2023-04-27T14:47:52.325Z,53.62
2023-04-27T14:50:20.483Z,53.47
2023-04-27T14:52:48.632Z,53.58
2023-04-27T14:55:18.116Z,54.22
2023-04-27T14:57:48.039Z,54.05
2023-04-27T15:00:16.872Z,53.94
2023-04-27T15:02:44.822Z,53.77
2023-04-27T15:05:12.866Z,54.20
2023-04-27T15:07:41.306Z,54.42
2023-04-27T15:10:10.468Z,54.55
2023-04-27T15:12:38.374Z,54.61
2023-04-27T15:15:11.189Z,54.69
2023-04-27T15:17:39.082Z,55.34
2023-04-27T15:20:10.964Z,55.39
2023-04-27T15:22:41.208Z,55.58
2023-04-27T15:25:09.951Z,55.47
2023-04-27T15:27:37.961Z,55.76
2023-04-27T15:30:09.037Z,55.97
2023-04-27T15:32:37.233Z,56.14
2023-04-27T15:35:06.153Z,56.12
2023-04-27T15:37:36.081Z,56.32
2023-04-27T15:40:04.024Z,56.30
2023-04-27T15:42:32.027Z,56.29
2023-04-27T15:45:00.588Z,55.96
2023-04-27T15:47:32.642Z,56.41
2023-04-27T15:50:00.806Z,56.05
2023-04-27T15:52:28.670Z,56.06
2023-04-27T15:54:57.228Z,56.25
2023-04-27T15:57:25.134Z,56.27
2023-04-27T15:59:53.032Z,56.63
2023-04-27T16:02:21.102Z,56.94
2023-04-27T16:04:50.875Z,57.14
2023-04-27T16:07:18.932Z,57.34
2023-04-27T16:09:46.853Z,57.66
2023-04-27T16:12:14.793Z,57.86
2023-04-27T16:14:42.731Z,57.86
2023-04-27T16:17:10.755Z,58.45
2023-04-27T16:19:38.948Z,58.53
2023-04-27T16:22:08.193Z,58.76
2023-04-27T16:24:36.391Z,59.17
2023-04-27T16:27:04.678Z,58.97
2023-04-27T16:29:32.594Z,59.14
2023-04-27T16:32:00.732Z,58.83
2023-04-27T16:34:28.933Z,59.04
2023-04-27T16:36:56.826Z,59.26
2023-04-27T16:39:26.172Z,59.35
2023-04-27T16:41:54.024Z,58.86
2023-04-27T16:44:22.238Z,59.35
2023-04-27T16:46:52.025Z,59.29
2023-04-27T16:49:19.956Z,59.63
2023-04-27T16:51:47.900Z,59.65
2023-04-27T16:54:16.491Z,59.55
2023-04-27T16:56:46.567Z,59.70
2023-04-27T16:59:14.652Z,59.93
2023-04-27T17:01:43.016Z,60.18
2023-04-27T17:04:11.607Z,60.31
2023-04-27T17:06:40.969Z,60.14
2023-04-27T17:09:10.290Z,59.89
2023-04-27T17:11:38.267Z,60.07
2023-04-27T17:14:07.517Z,59.85
2023-04-27T17:16:35.668Z,60.17
2023-04-27T17:19:03.892Z,59.80
2023-04-27T17:21:32.510Z,60.17
2023-04-27T17:24:00.577Z,59.83
2023-04-27T17:26:28.500Z,59.99
2023-04-27T17:28:59.987Z,60.19
2023-04-27T17:31:29.581Z,60.31
2023-04-27T17:33:57.461Z,59.99
2023-04-27T17:36:25.481Z,59.92
2023-04-27T17:38:54.039Z,60.28
2023-04-27T17:41:22.291Z,60.07
2023-04-27T17:43:50.329Z,60.07
2023-04-27T17:46:18.467Z,60.20
2023-04-27T17:48:48.002Z,60.25
2023-04-27T17:51:16.404Z,60.20
2023-04-27T17:53:50.431Z,60.19
2023-04-27T17:56:18.306Z,60.67
2023-04-27T17:58:46.214Z,60.38
2023-04-27T18:01:14.159Z,60.51
2023-04-27T18:03:43.149Z,60.61
2023-04-27T18:06:14.961Z,60.65
2023-04-27T18:08:42.962Z,60.41
2023-04-27T18:11:10.917Z,60.70
2023-04-27T18:13:38.780Z,60.49
2023-04-27T18:16:07.031Z,60.86
2023-04-27T18:18:34.922Z,60.62
2023-04-27T18:21:03.092Z,60.77
2023-04-27T18:23:32.368Z,60.54
2023-04-27T18:26:00.951Z,60.88
2023-04-27T18:28:28.843Z,60.54
2023-04-27T18:30:56.703Z,60.64
2023-04-27T18:33:24.626Z,60.78
2023-04-27T18:35:52.890Z,60.76
2023-04-27T18:38:20.878Z,60.91
2023-04-27T18:40:50.136Z,60.92
2023-04-27T18:43:18.161Z,60.85
2023-04-27T18:45:46.777Z,60.90
2023-04-27T18:48:14.894Z,61.05
2023-04-27T18:50:43.105Z,61.45
2023-04-27T18:53:10.994Z,61.48
2023-04-27T18:55:39.525Z,61.19
2023-04-27T18:58:19.470Z,61.31
2023-04-27T19:00:47.337Z,61.34
2023-04-27T19:03:15.352Z,61.21
2023-04-27T19:05:44.137Z,61.11
2023-04-27T19:08:12.010Z,61.35
2023-04-27T19:10:41.190Z,61.08
2023-04-27T19:13:10.631Z,61.23
2023-04-27T19:15:38.667Z,61.54
2023-04-27T19:18:11.497Z,61.64
2023-04-27T19:20:39.900Z,61.37
2023-04-27T19:23:09.392Z,61.81
2023-04-27T19:25:37.528Z,61.76
2023-04-27T19:28:06.107Z,61.63
2023-04-27T19:30:35.428Z,61.96
2023-04-27T19:33:04.263Z,61.94
2023-04-27T19:35:32.221Z,61.72
2023-04-27T19:38:00.207Z,61.45
2023-04-27T19:40:28.104Z,61.44
2023-04-27T19:42:55.997Z,61.84
2023-04-27T19:45:23.898Z,61.65
2023-04-27T19:47:54.143Z,61.50
2023-04-27T19:50:22.170Z,61.72
2023-04-27T19:52:50.336Z,62.02
2023-04-27T19:55:18.622Z,61.96
2023-04-27T19:57:46.492Z,62.23
2023-04-27T20:00:15.019Z,62.04
2023-04-27T20:02:43.334Z,62.04
2023-04-27T20:05:13.648Z,62.36
2023-04-27T20:07:41.752Z,61.81
2023-04-27T20:10:09.769Z,62.04
2023-04-27T20:12:54.639Z,61.98
2023-04-27T20:15:24.573Z,61.83
2023-04-27T20:17:52.716Z,62.15
2023-04-27T20:20:22.108Z,62.30
2023-04-27T20:22:50.040Z,62.17
2023-04-27T20:25:19.588Z,62.67
2023-04-27T20:27:47.628Z,62.43
2023-04-27T20:30:16.046Z,62.68
2023-04-27T20:32:44.227Z,62.68
2023-04-27T20:35:12.337Z,62.36
2023-04-27T20:37:43.499Z,62.53
2023-04-27T20:40:14.559Z,62.82
2023-04-27T20:42:42.662Z,62.56
2023-04-27T20:45:11.657Z,63.02
2023-04-27T20:47:39.550Z,62.81
2023-04-27T20:50:09.092Z,63.08
2023-04-27T20:52:36.996Z,62.79
2023-04-27T20:55:06.757Z,63.25
2023-04-27T20:57:34.700Z,62.88
2023-04-27T21:00:02.838Z,63.32
2023-04-27T21:02:30.788Z,63.50
2023-04-27T21:04:58.783Z,63.32
2023-04-27T21:07:26.706Z,63.31
2023-04-27T21:09:54.631Z,63.75
2023-04-27T21:12:23.909Z,63.34
2023-04-27T21:14:51.857Z,63.47
2023-04-27T21:17:19.741Z,63.72
2023-04-27T21:19:47.623Z,63.27
2023-04-27T21:22:15.680Z,63.51
2023-04-27T21:24:43.565Z,63.74
2023-04-27T21:27:12.806Z,63.33
2023-04-27T21:29:42.045Z,63.20
2023-04-27T21:32:09.922Z,63.38
2023-04-27T21:34:37.776Z,63.33
2023-04-27T21:37:05.692Z,63.58
2023-04-27T21:39:33.614Z,63.33
2023-04-27T21:42:01.478Z,63.37
2023-04-27T21:44:29.361Z,63.58
2023-04-27T21:46:58.687Z,63.50
2023-04-27T21:49:26.529Z,63.20
2023-04-27T21:51:54.382Z,63.19
2023-04-27T21:54:22.290Z,63.47
2023-04-27T21:56:50.141Z,63.37
2023-04-27T21:59:17.986Z,63.42
2023-04-27T22:01:46.252Z,63.17
2023-04-27T22:04:16.912Z,63.52
2023-04-27T22:06:45.062Z,63.24
2023-04-27T22:09:13.286Z,63.32
2023-04-27T22:11:41.476Z,63.51
2023-04-27T22:14:09.393Z,63.54
2023-04-27T22:16:37.378Z,63.54
2023-04-27T22:19:05.317Z,63.31
2023-04-27T22:21:34.573Z,63.30
2023-04-27T22:24:02.494Z,63.43
2023-04-27T22:26:30.406Z,63.77
2023-04-27T22:28:58.272Z,63.30
2023-04-27T22:31:26.312Z,63.58
2023-04-27T22:33:54.237Z,63.16
2023-04-27T22:36:22.083Z,63.33
2023-04-27T22:38:52.462Z,63.16
2023-04-27T22:41:20.463Z,63.23
2023-04-27T22:43:48.339Z,63.44
2023-04-27T22:46:16.363Z,63.30
2023-04-27T22:48:45.069Z,63.10
2023-04-27T22:51:13.106Z,63.43
2023-04-27T22:53:41.178Z,63.47
2023-04-27T22:56:10.514Z,63.49
2023-04-27T22:58:38.399Z,63.36
2023-04-27T23:01:06.430Z,63.31
2023-04-27T23:03:34.450Z,63.52
2023-04-27T23:06:02.383Z,63.36
2023-04-27T23:08:30.273Z,63.60
2023-04-27T23:10:58.172Z,63.24
2023-04-27T23:13:27.750Z,63.36
2023-04-27T23:15:55.893Z,63.23
2023-04-27T23:18:23.753Z,63.27
2023-04-27T23:20:54.108Z,63.32
2023-04-27T23:23:21.957Z,63.29
2023-04-27T23:25:49.823Z,63.27
2023-04-27T23:28:17.791Z,63.34
2023-04-27T23:30:52.680Z,63.50
2023-04-27T23:33:20.588Z,63.29
2023-04-27T23:35:48.466Z,63.52
2023-04-27T23:38:16.498Z,63.38
2023-04-27T23:40:44.389Z,63.43
2023-04-27T23:43:12.282Z,63.65
2023-04-27T23:45:40.176Z,63.40
2023-04-27T23:48:09.458Z,63.30
2023-04-27T23:50:37.379Z,63.20
2023-04-27T23:53:05.234Z,63.60
2023-04-27T23:55:35.029Z,63.34
2023-04-27T23:58:02.897Z,63.59
